Time;durP1;ratioP1;P1;durP2;ratioP2;P2;SDS_P1;SDS_P2;PMS_P1;PMS_P2;Temp;Humidity;BMP_temperature;BMP_pressure;BME280_temperature;BME280_humidity;BME280_pressure;Samples;Min_cycle;Max_cycle;Signal;HPM_P1;HPM_P2
2021/08/15 00:01:22;;;;;;;15.55;7.10;;;;;;;18.79;68.54;100102.00;4942317;29;20131;-63
2021/08/15 00:04:09;;;;;;;15.77;7.35;;;;;;;18.80;68.76;100098.47;4942493;29;20098;-64
2021/08/15 00:06:56;;;;;;;15.10;7.60;;;;;;;18.79;68.66;100096.75;4941945;28;20122;-65
2021/08/15 00:09:40;;;;;;;16.48;7.65;;;;;;;18.80;68.74;100095.84;4942459;29;20519;-64
2021/08/15 00:12:26;;;;;;;19.45;8.25;;;;;;;18.80;68.75;100097.63;4956745;29;20124;-63
2021/08/15 00:15:16;;;;;;;16.52;7.40;;;;;;;18.79;68.55;100085.41;4942664;29;20084;-63
2021/08/15 00:18:00;;;;;;;14.77;7.85;;;;;;;18.80;68.59;100090.59;4941948;29;20050;-63
2021/08/15 00:20:47;;;;;;;12.05;7.28;;;;;;;18.78;68.85;100076.63;4956968;29;20078;-63
2021/08/15 00:23:31;;;;;;;11.38;6.95;;;;;;;18.80;68.95;100090.59;4956713;29;20142;-64
2021/08/15 00:26:17;;;;;;;15.35;8.02;;;;;;;18.78;68.60;100079.25;4956373;29;20050;-63
2021/08/15 00:29:01;;;;;;;17.83;7.88;;;;;;;18.78;68.71;100086.28;4956815;29;20090;-64
2021/08/15 00:31:50;;;;;;;14.70;7.68;;;;;;;18.77;68.66;100084.56;4956289;29;20117;-64
2021/08/15 00:34:39;;;;;;;14.20;6.78;;;;;;;18.75;68.77;100081.97;4942486;29;20419;-64
2021/08/15 00:37:26;;;;;;;15.68;7.45;;;;;;;18.73;68.85;100075.88;4956914;29;20127;-63
2021/08/15 00:40:11;;;;;;;12.20;7.70;;;;;;;18.72;68.70;100080.22;4941605;29;20134;-63
2021/08/15 00:42:58;;;;;;;14.85;7.32;;;;;;;18.71;68.62;100075.03;4956478;29;20615;-64
2021/08/15 00:45:45;;;;;;;15.98;7.47;;;;;;;18.70;68.96;100084.63;4942065;29;20046;-64
2021/08/15 00:48:35;;;;;;;12.43;7.15;;;;;;;18.71;68.76;100077.66;4956205;29;20106;-64
2021/08/15 00:51:19;;;;;;;14.25;7.25;;;;;;;18.69;68.82;100075.03;4941773;29;20102;-64
2021/08/15 00:54:03;;;;;;;11.55;7.47;;;;;;;18.68;68.78;100072.44;4956101;29;20082;-63
2021/08/15 00:56:54;;;;;;;19.80;7.70;;;;;;;18.68;68.78;100069.81;4956232;29;20098;-63
2021/08/15 00:59:41;;;;;;;9.63;6.13;;;;;;;18.68;68.80;100061.94;4941356;29;20054;-63
2021/08/15 01:02:28;;;;;;;10.68;6.80;;;;;;;18.67;68.91;100058.47;4955839;29;20070;-64
2021/08/15 01:05:12;;;;;;;13.10;7.13;;;;;;;18.68;68.91;100059.31;4941830;29;20455;-63
2021/08/15 01:07:59;;;;;;;14.57;7.30;;;;;;;18.66;68.93;100054.13;4942174;29;20391;-63
2021/08/15 01:10:48;;;;;;;11.10;6.82;;;;;;;18.65;68.87;100055.00;4941508;29;20102;-63
2021/08/15 01:13:33;;;;;;;15.00;7.72;;;;;;;18.65;68.91;100056.75;4956229;29;20047;-64
2021/08/15 01:16:20;;;;;;;12.73;7.15;;;;;;;18.64;68.90;100049.75;4941606;29;20142;-62
2021/08/15 01:19:05;;;;;;;11.27;6.78;;;;;;;18.64;68.81;100055.00;4941806;29;20114;-64
2021/08/15 01:21:48;;;;;;;;;;;;;;;18.62;68.93;100046.28;4942019;29;20399;-64
2021/08/15 01:24:32;;;;;;;14.68;6.45;;;;;;;18.60;69.09;100043.72;4955808;29;20290;-63
2021/08/15 01:27:20;;;;;;;9.32;6.00;;;;;;;18.62;68.93;100041.03;4955638;29;20105;-62
2021/08/15 01:30:06;;;;;;;13.93;7.35;;;;;;;18.61;69.10;100036.72;4941554;29;20101;-64
2021/08/15 01:32:53;;;;;;;12.95;7.22;;;;;;;18.60;69.00;100035.84;4941346;29;20114;-63
2021/08/15 01:35:37;;;;;;;11.15;6.95;;;;;;;18.60;69.01;100038.47;4941163;29;20406;-63
2021/08/15 01:38:23;;;;;;;10.60;6.43;;;;;;;18.61;68.86;100042.81;4955911;29;20054;-64
2021/08/15 01:41:08;;;;;;;10.00;6.43;;;;;;;18.61;68.80;100045.44;4955375;29;20102;-63
2021/08/15 01:43:59;;;;;;;11.68;6.50;;;;;;;18.61;68.85;100039.34;4955243;29;20053;-64
2021/08/15 01:46:48;;;;;;;11.20;6.70;;;;;;;18.61;68.67;100041.97;4941283;29;20058;-64
2021/08/15 01:49:35;;;;;;;15.60;7.05;;;;;;;18.60;68.75;100037.59;4955263;29;20062;-63
2021/08/15 01:52:19;;;;;;;14.68;7.25;;;;;;;18.58;68.81;100042.00;4941215;29;20122;-64
2021/08/15 01:55:05;;;;;;;11.70;6.82;;;;;;;18.57;68.95;100035.88;4940800;29;20050;-63
2021/08/15 01:57:52;;;;;;;13.35;6.05;;;;;;;18.56;68.76;100026.28;4940636;29;20046;-63
2021/08/15 02:00:38;;;;;;;15.52;7.38;;;;;;;18.56;68.95;100034.16;4955530;29;20094;-64
2021/08/15 02:03:21;;;;;;;10.77;6.45;;;;;;;18.56;69.06;100028.91;4940546;29;20106;-65
2021/08/15 02:06:05;;;;;;;10.68;6.32;;;;;;;18.55;69.03;100022.78;4940560;29;20070;-63
2021/08/15 02:08:51;;;;;;;10.48;5.88;;;;;;;18.54;68.90;100020.19;4955404;29;20054;-63
2021/08/15 02:11:40;;;;;;;10.98;6.18;;;;;;;18.54;68.83;100018.44;4941139;29;20055;-63
2021/08/15 02:14:25;;;;;;;13.98;6.78;;;;;;;18.54;68.90;100020.19;4955206;29;20057;-63
2021/08/15 02:17:09;;;;;;;15.27;6.65;;;;;;;18.53;68.79;100018.47;4940454;29;20050;-63
2021/08/15 02:19:58;;;;;;;18.05;6.53;;;;;;;18.53;68.91;100015.84;4940847;29;20067;-63
2021/08/15 02:22:42;;;;;;;12.13;5.63;;;;;;;18.52;68.74;100012.34;4940118;29;20479;-64
2021/08/15 02:25:28;;;;;;;11.52;6.70;;;;;;;18.51;69.09;100008.00;4955260;29;20049;-64
2021/08/15 02:28:20;;;;;;;10.98;6.35;;;;;;;18.50;69.02;100005.41;4954785;29;20054;-63
2021/08/15 02:31:10;;;;;;;10.93;6.18;;;;;;;18.50;68.74;99995.75;4955620;28;20058;-65
2021/08/15 02:33:57;;;;;;;10.80;5.85;;;;;;;18.49;68.88;99993.19;4944619;29;20098;-64
2021/08/15 02:36:41;;;;;;;11.90;5.97;;;;;;;18.48;68.94;99992.28;4958452;29;20054;-63
2021/08/15 02:39:25;;;;;;;12.50;6.13;;;;;;;18.47;68.80;99992.34;4958362;29;20478;-63
2021/08/15 02:42:14;;;;;;;17.50;7.15;;;;;;;18.46;68.88;99988.81;4958778;29;20414;-64
2021/08/15 02:44:59;;;;;;;10.85;5.85;;;;;;;18.44;69.10;99980.16;4944421;29;20054;-63
2021/08/15 02:47:46;;;;;;;11.38;5.82;;;;;;;18.42;69.10;99981.94;4944275;29;20046;-65
2021/08/15 02:50:30;;;;;;;11.32;5.30;;;;;;;18.44;68.98;99988.00;4943996;29;20166;-63
2021/08/15 02:53:14;;;;;;;14.93;6.38;;;;;;;18.43;69.03;99983.66;4958825;29;20067;-64
2021/08/15 02:56:04;;;;;;;8.25;5.72;;;;;;;18.41;68.97;99972.31;4944214;29;20050;-63
2021/08/15 02:58:51;;;;;;;13.48;6.38;;;;;;;18.40;69.10;99962.72;4944090;29;20105;-63
2021/08/15 03:01:34;;;;;;;9.18;5.25;;;;;;;18.39;68.79;99966.22;4958237;29;20101;-63
2021/08/15 03:04:26;;;;;;;10.98;5.78;;;;;;;18.37;69.01;99974.09;4957830;29;20150;-63
2021/08/15 03:07:10;;;;;;;8.50;5.88;;;;;;;18.37;69.08;99973.25;4958305;29;20458;-63
2021/08/15 03:09:59;;;;;;;13.13;5.20;;;;;;;18.36;68.94;99961.91;4958531;29;20050;-64
2021/08/15 03:12:44;;;;;;;11.63;5.28;;;;;;;18.34;68.94;99958.44;4957689;29;20053;-63
2021/08/15 03:15:33;;;;;;;13.20;5.63;;;;;;;18.36;68.84;99961.03;4943397;29;20062;-63
2021/08/15 03:18:20;;;;;;;11.60;5.97;;;;;;;18.35;68.89;99959.28;4958127;29;20066;-65
2021/08/15 03:21:04;;;;;;;10.65;5.97;;;;;;;18.34;68.90;99958.44;4943392;29;20046;-64
2021/08/15 03:23:51;;;;;;;14.48;5.72;;;;;;;18.33;68.92;99954.09;4957732;29;20130;-63
2021/08/15 03:26:41;;;;;;;8.88;4.78;;;;;;;18.32;68.94;99949.72;4957693;29;20078;-63
2021/08/15 03:29:30;;;;;;;11.07;5.40;;;;;;;18.32;69.08;99954.09;4943657;29;20089;-63
2021/08/15 03:32:15;;;;;;;12.68;5.28;;;;;;;18.32;69.13;99946.22;4957495;29;20130;-63
2021/08/15 03:35:01;;;;;;;8.60;4.90;;;;;;;18.30;68.92;99940.13;4958103;29;20098;-63
2021/08/15 03:37:45;;;;;;;9.10;5.50;;;;;;;18.29;68.95;99930.56;4943072;29;20094;-63
2021/08/15 03:40:32;;;;;;;17.10;5.47;;;;;;;18.28;69.21;99931.47;4957688;29;20470;-64
2021/08/15 03:43:18;;;;;;;13.32;5.35;;;;;;;18.28;68.95;99934.09;4942828;29;20050;-64
2021/08/15 03:46:02;;;;;;;10.30;4.82;;;;;;;18.26;68.78;99934.09;4957886;29;20457;-63
2021/08/15 03:48:47;;;;;;;;;;;;;;;18.25;69.01;99940.22;4944127;29;20134;-63
2021/08/15 03:51:31;;;;;;;9.80;5.20;;;;;;;18.24;69.01;99933.25;4943003;29;19930;-64
2021/08/15 03:54:20;;;;;;;7.43;5.35;;;;;;;18.24;69.00;99926.25;4957536;29;20123;-63
2021/08/15 03:57:04;;;;;;;9.57;5.38;;;;;;;18.22;69.12;99925.41;4942552;29;20054;-63
2021/08/15 03:59:53;;;;;;;10.85;4.97;;;;;;;18.22;68.99;99928.03;4957288;29;20125;-65
2021/08/15 04:02:37;;;;;;;12.30;5.75;;;;;;;18.22;69.03;99927.16;4942238;29;20055;-64
2021/08/15 04:05:23;;;;;;;14.27;5.53;;;;;;;18.21;69.03;99926.31;4956765;29;20046;-64
2021/08/15 04:08:12;;;;;;;10.23;5.00;;;;;;;18.22;68.95;99927.16;4957234;29;20077;-63
2021/08/15 04:10:56;;;;;;;9.55;5.13;;;;;;;18.20;69.00;99923.72;4957035;29;20471;-63
2021/08/15 04:13:40;;;;;;;12.23;5.57;;;;;;;18.20;69.31;99921.09;4942737;29;20058;-65
2021/08/15 04:16:29;;;;;;;11.10;5.00;;;;;;;18.19;69.16;99917.59;4942638;29;20109;-64
2021/08/15 04:19:16;;;;;;;10.75;5.25;;;;;;;18.17;68.87;99922.00;4942689;29;20050;-63
2021/08/15 04:22:02;;;;;;;12.80;6.00;;;;;;;18.19;69.06;99929.84;4942145;29;20561;-63
2021/08/15 04:24:46;;;;;;;13.88;6.25;;;;;;;18.18;69.09;99928.97;4956763;29;20089;-65
2021/08/15 04:27:32;;;;;;;11.63;5.45;;;;;;;18.17;68.81;99923.78;4956826;29;20058;-64
2021/08/15 04:30:20;;;;;;;12.52;6.15;;;;;;;18.16;69.02;99925.50;4956777;29;20482;-63
2021/08/15 04:33:04;;;;;;;9.73;4.90;;;;;;;18.16;69.18;99922.88;4956880;29;20046;-65
2021/08/15 04:35:48;;;;;;;11.90;5.18;;;;;;;18.15;69.27;99918.53;4942569;29;20053;-63
2021/08/15 04:38:35;;;;;;;10.68;5.30;;;;;;;18.16;69.04;99917.66;4942374;29;20050;-64
2021/08/15 04:41:19;;;;;;;8.95;5.55;;;;;;;18.14;69.13;99916.81;4942305;29;20403;-63
2021/08/15 04:44:09;;;;;;;9.88;5.38;;;;;;;18.14;69.17;99916.81;4956502;29;20079;-64
2021/08/15 04:46:53;;;;;;;10.82;5.05;;;;;;;18.13;69.16;99922.97;4955958;29;20054;-63
2021/08/15 04:49:39;;;;;;;12.13;5.43;;;;;;;18.13;68.90;99917.72;4956636;29;20102;-64
2021/08/15 04:52:29;;;;;;;9.63;5.40;;;;;;;18.12;68.96;99913.38;4956267;29;20065;-63
2021/08/15 04:55:19;;;;;;;10.85;5.22;;;;;;;18.11;69.05;99915.09;4955861;28;20419;-65
2021/08/15 04:58:04;;;;;;;12.60;5.43;;;;;;;18.13;69.03;99924.72;4942233;29;20090;-63
2021/08/15 05:00:51;;;;;;;11.60;5.32;;;;;;;18.12;68.81;99918.59;4941980;29;20062;-64
2021/08/15 05:03:40;;;;;;;9.90;5.20;;;;;;;18.10;68.71;99912.53;4955969;29;20110;-64
2021/08/15 05:06:25;;;;;;;7.93;4.78;;;;;;;18.10;69.17;99918.63;4955840;29;20046;-64
2021/08/15 05:09:11;;;;;;;7.82;5.07;;;;;;;18.11;69.30;99906.38;4955995;29;20050;-62
2021/08/15 05:12:03;;;;;;;8.90;5.22;;;;;;;18.09;69.07;99918.66;4955839;29;20110;-64
2021/08/15 05:14:52;;;;;;;10.25;5.00;;;;;;;18.09;69.02;99911.63;4955890;29;20190;-63
2021/08/15 05:17:36;;;;;;;10.18;4.72;;;;;;;18.09;69.21;99906.41;4955940;29;20102;-63
2021/08/15 05:20:23;;;;;;;11.23;5.50;;;;;;;18.08;69.18;99907.28;4941685;29;20561;-63
2021/08/15 05:23:12;;;;;;;9.38;4.55;;;;;;;18.08;69.23;99909.06;4941534;29;20078;-64
2021/08/15 05:25:59;;;;;;;10.30;4.53;;;;;;;18.08;69.37;99915.16;4955987;29;20514;-63
2021/08/15 05:28:46;;;;;;;9.02;5.22;;;;;;;18.08;69.33;99904.66;4941022;29;20135;-64
2021/08/15 05:31:35;;;;;;;7.78;4.72;;;;;;;18.07;69.13;99904.69;4955704;29;20046;-63
2021/08/15 05:34:19;;;;;;;12.73;5.63;;;;;;;18.08;69.41;99909.91;4940883;29;20139;-63
2021/08/15 05:37:08;;;;;;;9.68;4.93;;;;;;;18.10;69.19;99907.28;4941899;29;20054;-63
2021/08/15 05:39:56;;;;;;;9.27;5.03;;;;;;;18.09;69.18;99908.16;4940921;29;20097;-63
2021/08/15 05:42:41;;;;;;;10.60;5.65;;;;;;;18.09;69.28;99916.88;4955553;29;20127;-64
2021/08/15 05:45:28;;;;;;;;;;;;;;;18.08;69.15;99912.53;4955999;29;20098;-63
2021/08/15 05:48:16;;;;;;;12.10;4.97;;;;;;;18.08;69.29;99909.06;4940895;29;20396;-64
2021/08/15 05:51:07;;;;;;;10.77;5.25;;;;;;;18.09;69.38;99908.16;4940916;29;20042;-64
2021/08/15 05:53:57;;;;;;;9.00;4.75;;;;;;;18.10;69.31;99902.88;4940930;29;20462;-65
2021/08/15 05:56:41;;;;;;;9.68;4.78;;;;;;;18.11;69.29;99902.00;4941355;29;20119;-63
2021/08/15 05:59:31;;;;;;;9.25;4.50;;;;;;;18.14;69.45;99903.69;4940586;29;20086;-63
2021/08/15 06:02:15;;;;;;;6.85;3.78;;;;;;;18.14;69.21;99903.69;4940741;29;20090;-63
2021/08/15 06:04:59;;;;;;;9.07;4.15;;;;;;;18.15;69.43;99908.03;4955530;28;20422;-63
2021/08/15 06:07:48;;;;;;;7.78;4.13;;;;;;;18.13;69.63;99899.38;4959142;29;20058;-62
2021/08/15 06:10:38;;;;;;;14.27;4.45;;;;;;;18.15;69.64;99905.41;4959519;29;20101;-65
2021/08/15 06:13:22;;;;;;;8.52;4.65;;;;;;;18.17;69.53;99897.53;4945217;29;20082;-63
2021/08/15 06:16:09;;;;;;;6.88;4.28;;;;;;;18.17;69.42;99898.41;4959011;29;20054;-63
2021/08/15 06:19:02;;;;;;;12.05;4.13;;;;;;;18.17;69.59;99890.53;4944644;29;20055;-63
2021/08/15 06:21:52;;;;;;;10.38;4.90;;;;;;;18.19;69.41;99891.38;4959234;29;20074;-63
2021/08/15 06:24:36;;;;;;;9.43;4.70;;;;;;;18.20;69.49;99885.22;4959065;29;20046;-64
2021/08/15 06:27:20;;;;;;;7.90;4.47;;;;;;;18.22;69.78;99890.44;4944253;29;20050;-64
2021/08/15 06:30:14;;;;;;;9.35;4.47;;;;;;;18.22;69.87;99891.31;4959300;29;20107;-63
2021/08/15 06:33:05;;;;;;;7.50;4.38;;;;;;;18.23;69.58;99882.56;4958769;29;20062;-64
2021/08/15 06:35:54;;;;;;;8.20;4.55;;;;;;;18.25;69.74;99880.78;4958816;29;20051;-63
2021/08/15 06:38:46;;;;;;;10.20;4.28;;;;;;;18.28;69.65;99885.09;4958750;29;20062;-63
2021/08/15 06:41:38;;;;;;;7.85;4.32;;;;;;;18.28;69.84;99869.34;4959033;29;20102;-63
2021/08/15 06:44:28;;;;;;;7.50;4.38;;;;;;;18.30;69.83;99879.81;4943669;29;20602;-64
2021/08/15 06:47:14;;;;;;;7.75;4.20;;;;;;;18.31;69.75;99878.91;4944509;29;20090;-64
2021/08/15 06:49:58;;;;;;;6.90;4.00;;;;;;;18.32;69.78;99880.66;4958647;29;20133;-63
2021/08/15 06:52:45;;;;;;;7.32;4.78;;;;;;;18.34;69.58;99871.00;4944263;29;20061;-64
2021/08/15 06:55:35;;;;;;;8.57;3.78;;;;;;;18.35;69.72;99876.22;4958258;29;20066;-64
2021/08/15 06:58:22;;;;;;;7.53;4.38;;;;;;;18.36;69.69;99872.72;4958235;29;20046;-63
2021/08/15 07:01:06;;;;;;;10.30;4.30;;;;;;;18.37;69.77;99879.66;4958717;29;20418;-63
2021/08/15 07:03:56;;;;;;;8.88;4.35;;;;;;;18.37;69.78;99871.78;4943915;29;20054;-64
2021/08/15 07:06:43;;;;;;;10.30;4.28;;;;;;;18.37;69.76;99873.56;4958284;29;20114;-63
2021/08/15 07:09:30;;;;;;;7.80;4.22;;;;;;;18.39;69.82;99874.41;4943494;29;20053;-64
2021/08/15 07:12:14;;;;;;;8.43;4.25;;;;;;;18.39;70.02;99877.88;4943716;29;20053;-63
2021/08/15 07:15:01;;;;;;;9.15;4.15;;;;;;;18.40;69.92;99874.38;4958476;29;20058;-64
2021/08/15 07:17:50;;;;;;;12.07;4.55;;;;;;;18.41;69.97;99875.25;4943392;29;20054;-63
2021/08/15 07:20:35;;;;;;;9.23;4.80;;;;;;;18.42;69.87;99877.81;4943947;29;20404;-65
2021/08/15 07:23:22;;;;;;;8.45;3.83;;;;;;;18.43;70.01;99873.47;4957999;29;20050;-63
2021/08/15 07:26:06;;;;;;;10.77;4.07;;;;;;;18.44;69.93;99874.31;4958176;29;20106;-64
2021/08/15 07:28:52;;;;;;;6.18;4.07;;;;;;;18.45;69.85;99881.28;4957646;29;20471;-63
2021/08/15 07:31:38;;;;;;;7.40;4.15;;;;;;;18.46;70.00;99885.66;4957581;29;20522;-64
2021/08/15 07:34:23;;;;;;;5.80;3.88;;;;;;;18.47;69.85;99882.97;4957737;29;20046;-63
2021/08/15 07:37:06;;;;;;;7.32;4.22;;;;;;;18.48;69.87;99881.25;4957687;29;20063;-65
2021/08/15 07:39:56;;;;;;;5.60;3.45;;;;;;;18.48;70.12;99886.50;4943263;29;20089;-63
2021/08/15 07:42:45;;;;;;;7.07;3.78;;;;;;;18.48;69.87;99892.59;4957355;29;20086;-65
2021/08/15 07:45:33;;;;;;;8.00;3.78;;;;;;;18.50;70.00;99890.81;4943110;29;20530;-64
2021/08/15 07:48:17;;;;;;;9.02;4.15;;;;;;;18.53;69.96;99892.53;4957528;29;20043;-65
2021/08/15 07:51:07;;;;;;;7.53;3.92;;;;;;;18.52;69.90;99881.16;4957755;29;20098;-63
2021/08/15 07:53:51;;;;;;;6.85;3.80;;;;;;;18.53;70.00;99885.50;4943007;29;20546;-64
2021/08/15 07:56:38;;;;;;;6.88;4.13;;;;;;;18.54;69.88;99876.72;4957628;29;20542;-63
2021/08/15 07:59:27;;;;;;;8.15;3.53;;;;;;;18.58;70.02;99888.03;4943077;29;20050;-63
2021/08/15 08:02:11;;;;;;;7.38;3.97;;;;;;;18.61;69.67;99884.50;4942425;29;20518;-64
2021/08/15 08:04:58;;;;;;;7.93;4.07;;;;;;;18.62;69.80;99886.19;4957018;29;20070;-64
2021/08/15 08:07:45;;;;;;;8.38;4.63;;;;;;;18.64;70.07;99882.66;4957198;29;20094;-64
2021/08/15 08:10:33;;;;;;;11.98;4.70;;;;;;;18.68;70.14;99883.47;4957049;29;20061;-65
2021/08/15 08:13:21;;;;;;;13.00;5.03;;;;;;;18.68;70.34;99879.09;4957217;29;20151;-63
2021/08/15 08:16:05;;;;;;;9.00;5.03;;;;;;;18.72;69.96;99882.53;4957042;29;20070;-63
2021/08/15 08:18:50;;;;;;;8.70;5.20;;;;;;;18.72;70.07;99872.88;4957343;29;20148;-64
2021/08/15 08:21:36;;;;;;;9.45;5.00;;;;;;;18.75;70.14;99877.22;4956878;29;20103;-64
2021/08/15 08:24:21;;;;;;;11.70;4.10;;;;;;;18.76;70.17;99876.31;4956410;29;20049;-63
2021/08/15 08:27:07;;;;;;;8.77;4.32;;;;;;;18.77;70.12;99878.00;4942081;29;20054;-64
2021/08/15 08:29:51;;;;;;;9.25;4.05;;;;;;;18.80;70.19;99882.38;4941445;29;20055;-65
2021/08/15 08:32:35;;;;;;;8.02;3.67;;;;;;;18.80;70.06;99885.00;4942586;29;20054;-64
2021/08/15 08:35:21;;;;;;;7.40;3.63;;;;;;;18.81;70.05;99887.56;4956762;29;20171;-63
2021/08/15 08:38:05;;;;;;;8.88;4.43;;;;;;;18.82;69.87;99873.53;4956438;29;20051;-64
2021/08/15 08:40:56;;;;;;;8.57;3.97;;;;;;;18.84;69.91;99874.38;4956616;29;20143;-63
2021/08/15 08:43:45;;;;;;;8.63;3.95;;;;;;;18.86;70.13;99876.97;4956221;29;20078;-64
2021/08/15 08:46:30;;;;;;;9.68;4.47;;;;;;;18.89;70.07;99873.44;4942204;29;20054;-63
2021/08/15 08:49:20;;;;;;;6.97;3.83;;;;;;;18.90;70.13;99872.53;4941520;29;20058;-63
2021/08/15 08:52:05;;;;;;;7.22;3.38;;;;;;;18.92;70.10;99879.47;4942048;29;20118;-65
2021/08/15 08:54:50;;;;;;;5.93;3.03;;;;;;;18.94;69.98;99875.09;4956262;29;20525;-65
2021/08/15 08:57:37;;;;;;;5.80;3.13;;;;;;;18.97;70.06;99874.16;4941711;29;20050;-64
2021/08/15 09:00:21;;;;;;;9.40;4.13;;;;;;;18.97;69.96;99866.28;4955993;29;20415;-64
2021/08/15 09:03:07;;;;;;;10.07;3.78;;;;;;;19.00;69.97;99868.84;4955834;29;20470;-64
2021/08/15 09:05:55;;;;;;;18.63;4.13;;;;;;;19.01;69.99;99860.06;4955807;29;20054;-63
2021/08/15 09:08:39;;;;;;;8.45;3.47;;;;;;;19.01;70.09;99858.28;4941906;29;20111;-63
2021/08/15 09:11:26;;;;;;;10.00;4.47;;;;;;;19.03;70.09;99860.91;4955836;29;20054;-64
2021/08/15 09:14:18;;;;;;;10.82;3.95;;;;;;;19.04;70.13;99859.13;4956178;29;20101;-64
2021/08/15 09:17:08;;;;;;;21.17;3.67;;;;;;;19.06;70.11;99859.97;4955943;29;20098;-63
2021/08/15 09:19:58;;;;;;;11.65;3.83;;;;;;;19.08;70.18;99858.16;4955680;29;20058;-63
2021/08/15 09:22:42;;;;;;;9.30;3.42;;;;;;;19.10;69.80;99856.38;4955413;29;20066;-64
2021/08/15 09:25:28;;;;;;;9.57;3.65;;;;;;;19.11;69.73;99850.22;4941494;29;20113;-64
2021/08/15 09:28:13;;;;;;;18.05;4.25;;;;;;;19.12;70.00;99857.22;4956124;29;20053;-64
2021/08/15 09:30:56;;;;;;;;;;;;;;;19.13;69.82;99843.19;4955792;29;20045;-64
2021/08/15 09:33:43;;;;;;;4.55;3.25;;;;;;;19.13;70.00;99845.81;4941448;29;20465;-64
2021/08/15 09:36:31;;;;;;;6.47;3.42;;;;;;;19.14;70.04;99834.41;4941221;29;20050;-64
2021/08/15 09:39:15;;;;;;;6.88;3.13;;;;;;;19.16;69.96;99838.72;4941021;29;20101;-63
2021/08/15 09:41:59;;;;;;;6.43;3.58;;;;;;;19.19;69.93;99837.78;4955385;29;20102;-64
2021/08/15 09:44:43;;;;;;;;;;;;;;;19.20;70.00;99834.25;4955792;29;20108;-63
2021/08/15 09:47:27;;;;;;;6.72;4.18;;;;;;;19.21;70.10;99830.72;4941089;29;19984;-63
2021/08/15 09:50:23;;;;;;;6.63;3.65;;;;;;;19.24;69.93;99830.66;4955015;29;20089;-64
2021/08/15 09:53:30;;;;;;;8.13;3.90;;;;;;;19.28;69.98;99824.44;4955180;29;20090;-63
2021/08/15 09:56:32;;;;;;;9.23;3.85;;;;;;;19.31;70.09;99826.13;4941252;29;20513;-63
2021/08/15 09:59:22;;;;;;;10.05;4.35;;;;;;;19.35;70.16;99827.78;4955565;29;20042;-64
2021/08/15 10:02:11;;;;;;;8.18;3.30;;;;;;;19.38;70.03;99824.22;4955203;29;20489;-63
2021/08/15 10:04:58;;;;;;;5.30;3.33;;;;;;;19.41;70.24;99827.63;4955600;29;20189;-64
2021/08/15 10:07:46;;;;;;;6.10;3.47;;;;;;;19.43;70.29;99828.44;4941156;29;20054;-64
2021/08/15 10:10:30;;;;;;;7.97;3.80;;;;;;;19.47;70.20;99822.22;4955629;29;20098;-64
2021/08/15 10:13:17;;;;;;;5.70;3.05;;;;;;;19.50;70.20;99815.16;4954834;29;20054;-64
2021/08/15 10:16:08;;;;;;;9.77;4.18;;;;;;;19.52;70.15;99818.63;4955425;29;20054;-64
2021/08/15 10:18:54;;;;;;;14.95;3.95;;;;;;;19.52;69.88;99813.38;4954778;29;20423;-65
2021/08/15 10:21:41;;;;;;;6.60;3.60;;;;;;;19.54;69.96;99803.69;4940879;29;20097;-64
2021/08/15 10:24:41;;;;;;;8.13;3.50;;;;;;;19.55;70.01;99806.28;4955069;29;20054;-64
2021/08/15 10:27:40;;;;;;;12.90;4.10;;;;;;;19.57;69.77;99800.97;4940949;29;20057;-64
2021/08/15 10:30:30;;;;;;;7.55;2.67;;;;;;;19.57;69.82;99804.47;4940786;29;20050;-64
2021/08/15 10:33:16;;;;;;;6.60;3.25;;;;;;;19.59;69.95;99799.16;4954886;29;20411;-63
2021/08/15 10:36:21;;;;;;;8.30;3.42;;;;;;;19.62;69.79;99801.72;4940417;29;20058;-64
2021/08/15 10:39:37;;;;;;;8.10;3.65;;;;;;;19.63;69.85;99785.06;4954959;29;20475;-64
2021/08/15 10:42:48;;;;;;;9.98;3.97;;;;;;;19.67;69.68;99789.34;4940296;29;20050;-65
2021/08/15 10:45:38;;;;;;;12.88;4.03;;;;;;;19.70;69.91;99781.34;4940489;29;20055;-65
2021/08/15 10:48:22;;;;;;;9.30;3.65;;;;;;;19.73;69.90;99786.53;4940341;29;20054;-64
2021/08/15 10:51:09;;;;;;;12.90;3.95;;;;;;;19.75;69.76;99776.00;4954495;28;20098;-65
2021/08/15 10:53:56;;;;;;;9.43;3.20;;;;;;;19.76;69.71;99772.47;4958445;29;20138;-65
2021/08/15 10:56:57;;;;;;;13.73;4.13;;;;;;;19.79;69.68;99772.34;4943787;29;20163;-64
2021/08/15 10:59:42;;;;;;;14.02;3.75;;;;;;;19.81;69.63;99772.34;4943898;29;20050;-63
2021/08/15 11:02:32;;;;;;;21.60;4.45;;;;;;;19.82;69.77;99766.16;4958429;29;20062;-64
2021/08/15 11:05:34;;;;;;;16.13;4.90;;;;;;;19.81;69.84;99759.19;4958621;29;20046;-64
2021/08/15 11:08:33;;;;;;;20.48;4.55;;;;;;;19.82;69.79;99761.75;4944244;29;20054;-65
2021/08/15 11:11:25;;;;;;;10.60;4.18;;;;;;;19.83;69.62;99757.38;4958240;29;20055;-64
2021/08/15 11:14:18;;;;;;;8.30;3.90;;;;;;;19.85;69.73;99752.94;4957944;29;20106;-64
2021/08/15 11:17:09;;;;;;;8.33;3.77;;;;;;;19.86;69.59;99744.13;4943600;29;20066;-64
2021/08/15 11:19:53;;;;;;;12.85;4.05;;;;;;;19.87;69.43;99744.13;4943391;29;20046;-64
2021/08/15 11:22:40;;;;;;;;;;;;;;;19.87;69.41;99735.38;4943682;29;20070;-64
2021/08/15 11:25:26;;;;;;;8.07;3.42;;;;;;;19.86;69.22;99744.13;4958333;29;19924;-63
2021/08/15 11:28:14;;;;;;;9.70;3.38;;;;;;;19.88;69.07;99743.25;4943240;29;20066;-64
2021/08/15 11:30:58;;;;;;;6.57;3.22;;;;;;;19.88;69.01;99735.34;4943545;29;20102;-63
2021/08/15 11:33:42;;;;;;;11.25;4.25;;;;;;;19.89;69.02;99738.81;4943618;29;20049;-64
2021/08/15 11:36:26;;;;;;;8.15;4.03;;;;;;;19.90;69.18;99735.28;4943257;29;20107;-64
2021/08/15 11:39:12;;;;;;;17.35;4.10;;;;;;;19.91;68.94;99737.03;4957600;29;20055;-65
2021/08/15 11:41:56;;;;;;;9.52;3.30;;;;;;;19.92;69.09;99725.59;4943615;29;20058;-64
2021/08/15 11:44:49;;;;;;;10.85;3.30;;;;;;;19.94;68.95;99718.53;4957509;29;20043;-64
2021/08/15 11:47:36;;;;;;;10.90;3.30;;;;;;;19.95;68.66;99725.53;4943084;29;20483;-64
2021/08/15 11:50:26;;;;;;;5.65;3.10;;;;;;;19.94;68.65;99721.16;4957658;29;20050;-64
2021/08/15 11:53:24;;;;;;;7.88;3.10;;;;;;;19.95;68.93;99717.63;4957351;29;20102;-65
2021/08/15 11:56:12;;;;;;;9.20;3.45;;;;;;;19.98;68.65;99714.03;4942799;29;20106;-64
2021/08/15 11:58:57;;;;;;;11.27;3.08;;;;;;;19.98;68.65;99708.78;4943038;29;20046;-65
2021/08/15 12:01:42;;;;;;;8.35;3.30;;;;;;;19.98;68.53;99714.03;4956719;29;20065;-64
2021/08/15 12:04:29;;;;;;;9.73;3.47;;;;;;;19.98;68.28;99714.03;4956977;28;20046;-64
2021/08/15 12:07:19;;;;;;;10.57;3.65;;;;;;;19.99;68.70;99700.88;4942723;29;20415;-64
2021/08/15 12:10:25;;;;;;;8.27;3.92;;;;;;;20.00;68.43;99699.97;4957261;29;20455;-63
2021/08/15 12:13:18;;;;;;;9.05;3.72;;;;;;;20.00;68.37;99697.34;4942509;29;20529;-64
2021/08/15 12:16:07;;;;;;;18.02;3.80;;;;;;;20.00;68.41;99705.22;4956699;29;20122;-64
2021/08/15 12:18:56;;;;;;;19.02;3.67;;;;;;;20.01;68.33;99693.78;4942284;29;20109;-64
2021/08/15 12:21:46;;;;;;;10.02;3.33;;;;;;;20.02;68.26;99700.75;4956708;29;20554;-64
2021/08/15 12:24:39;;;;;;;17.08;4.72;;;;;;;20.03;68.34;99699.00;4942450;29;20554;-64
2021/08/15 12:27:23;;;;;;;12.02;3.80;;;;;;;20.05;68.31;99695.41;4942606;29;20077;-64
2021/08/15 12:30:07;;;;;;;10.70;3.42;;;;;;;20.08;68.25;99697.97;4957031;29;20105;-65
2021/08/15 12:32:51;;;;;;;12.05;4.20;;;;;;;20.07;68.12;99680.44;4956681;29;20054;-63
2021/08/15 12:35:38;;;;;;;10.55;3.35;;;;;;;20.08;67.98;99682.19;4941839;29;20054;-64
2021/08/15 12:38:29;;;;;;;11.55;3.85;;;;;;;20.10;68.15;99673.38;4942205;29;20063;-64
2021/08/15 12:41:29;;;;;;;11.77;3.75;;;;;;;20.11;68.24;99680.38;4956427;29;20534;-64
2021/08/15 12:44:16;;;;;;;12.10;3.75;;;;;;;20.11;68.03;99672.47;4941756;29;20642;-65
2021/08/15 12:47:08;;;;;;;7.70;3.53;;;;;;;20.11;68.25;99669.84;4941987;29;20573;-64
2021/08/15 12:50:12;;;;;;;8.80;3.35;;;;;;;20.13;68.17;99673.31;4942088;29;20050;-64
2021/08/15 12:53:12;;;;;;;10.60;4.23;;;;;;;20.15;68.20;99671.50;4942203;29;20054;-63
2021/08/15 12:55:56;;;;;;;6.35;3.42;;;;;;;20.16;68.15;99668.81;4941793;29;20050;-63
2021/08/15 12:58:40;;;;;;;7.28;3.13;;;;;;;20.19;68.05;99665.22;4942295;29;20054;-64
2021/08/15 13:01:29;;;;;;;7.53;3.10;;;;;;;20.20;68.21;99661.66;4941554;29;20098;-64
2021/08/15 13:04:16;;;;;;;9.93;2.85;;;;;;;20.21;68.15;99658.13;4955742;29;20070;-65